Saint-Joseph-De-Beauce, Canada
Current Conditions -  °F | °C
As of 11:00 PM on Wednesday 26 Nov 2014 (Local Time) from CYQB Reporting Station
Broken Clouds Broken Clouds  
Wind Chill: 21°   Ceiling: 7400
Heat Index: 30°   Visibility: 15mi
Dew Point: 18°   Wind: 12mph
Humidity: 60%   Direction: 40°NE
Pressure: 30.07"   Gusts: 21mph
Location:  46.3°N, 70.87°W
Report Text: CYQB 270400Z 04010G18KT 15SM BKN074 M01/M08 A3007 RMK AC7 SLP186
Loading
Personal Weather Stations






























Interactive Weather Map New forecast layout! Learn more

10-Day Weather Forecast

Advertisements
Track Severe Weather on mobile